Time;durP1;ratioP1;P1;durP2;ratioP2;P2;SDS_P1;SDS_P2;PMS_P1;PMS_P2;Temp;Humidity;BMP_temperature;BMP_pressure;BME280_temperature;BME280_humidity;BME280_pressure;Samples;Min_cycle;Max_cycle;Signal;HPM_P1;HPM_P2
2022/04/01 00:01:48;;;;;;;9.60;6.45;;;;;;;;;;4977452;28;20031;-79
2022/04/01 00:04:13;;;;;;;9.45;7.18;;;;;;;;;;4976026;28;20121;-78
2022/04/01 00:06:39;;;;;;;10.15;7.38;;;;;;;;;;4977085;28;20062;-78
2022/04/01 00:09:04;;;;;;;9.10;6.82;;;;;;;;;;4977253;28;20034;-79
2022/04/01 00:11:30;;;;;;;8.63;6.57;;;;;;;;;;4977335;28;20039;-78
2022/04/01 00:13:55;;;;;;;7.93;6.05;;;;;;;;;;4974373;28;20050;-78
2022/04/01 00:16:20;;;;;;;9.18;6.78;;;;;;;;;;4977143;28;20051;-78
2022/04/01 00:18:45;;;;;;;8.30;6.50;;;;;;;;;;4975568;28;20031;-78
2022/04/01 00:21:11;;;;;;;7.55;6.30;;;;;;;;;;4975585;28;20045;-78
2022/04/01 00:23:36;;;;;;;8.68;6.35;;;;;;;;;;4977212;28;20082;-79
2022/04/01 00:26:01;;;;;;;8.30;6.30;;;;;;;;;;4976776;28;20034;-78
2022/04/01 00:28:26;;;;;;;8.05;6.40;;;;;;;;;;4975077;28;20085;-78
2022/04/01 00:30:54;;;;;;;7.80;6.32;;;;;;;;;;4977065;28;20098;-78
2022/04/01 00:33:20;;;;;;;8.38;6.20;;;;;;;;;;4976942;28;20039;-78
2022/04/01 00:35:45;;;;;;;9.45;7.28;;;;;;;;;;4976420;28;20045;-78
2022/04/01 00:38:10;;;;;;;8.95;6.72;;;;;;;;;;4975182;28;20124;-78
2022/04/01 00:40:36;;;;;;;9.30;6.28;;;;;;;;;;4975615;28;20031;-78
2022/04/01 00:43:01;;;;;;;8.70;6.35;;;;;;;;;;4976597;28;20035;-78
2022/04/01 00:45:26;;;;;;;8.52;6.55;;;;;;;;;;4975215;28;20042;-78
2022/04/01 00:47:51;;;;;;;7.70;5.88;;;;;;;;;;4974976;28;20034;-78
2022/04/01 00:50:17;;;;;;;9.30;6.25;;;;;;;;;;4975162;28;20041;-78
2022/04/01 00:52:44;;;;;;;8.82;6.55;;;;;;;;;;4975567;28;20039;-78
2022/04/01 00:55:10;;;;;;;7.75;6.13;;;;;;;;;;4975279;28;20027;-78
2022/04/01 00:57:36;;;;;;;8.35;6.40;;;;;;;;;;4974749;28;20406;-78
2022/04/01 01:00:02;;;;;;;7.32;5.47;;;;;;;;;;4976556;28;20161;-78
2022/04/01 01:02:27;;;;;;;8.05;6.03;;;;;;;;;;4976408;28;20510;-78
2022/04/01 01:04:53;;;;;;;7.45;5.43;;;;;;;;;;4974547;28;20045;-78
2022/04/01 01:07:18;;;;;;;8.38;5.72;;;;;;;;;;4975174;28;20034;-78
2022/04/01 01:09:43;;;;;;;7.82;5.85;;;;;;;;;;4974892;28;20050;-78
2022/04/01 01:12:11;;;;;;;8.52;5.80;;;;;;;;;;4975129;28;20081;-78
2022/04/01 01:14:36;;;;;;;7.35;6.07;;;;;;;;;;4975867;28;20038;-78
2022/04/01 01:17:02;;;;;;;7.18;5.47;;;;;;;;;;4975086;28;20041;-78
2022/04/01 01:19:27;;;;;;;8.75;6.30;;;;;;;;;;4975813;28;20030;-79
2022/04/01 01:21:52;;;;;;;8.85;6.20;;;;;;;;;;4974896;28;20049;-78
2022/04/01 01:24:17;;;;;;;9.02;6.60;;;;;;;;;;4975828;28;20038;-78
2022/04/01 01:26:47;;;;;;;9.10;7.05;;;;;;;;;;4974917;28;20379;-78
2022/04/01 01:29:12;;;;;;;8.73;6.60;;;;;;;;;;4974800;28;20035;-78
2022/04/01 01:31:38;;;;;;;8.40;6.20;;;;;;;;;;4974713;28;20029;-78
2022/04/01 01:34:05;;;;;;;8.85;6.07;;;;;;;;;;4974420;28;20046;-78
2022/04/01 01:36:30;;;;;;;8.73;5.97;;;;;;;;;;4974647;28;20038;-78
2022/04/01 01:38:55;;;;;;;11.40;6.03;;;;;;;;;;4975598;28;20113;-78
2022/04/01 01:41:21;;;;;;;6.85;5.35;;;;;;;;;;4974527;28;20368;-78
2022/04/01 01:43:47;;;;;;;7.45;5.55;;;;;;;;;;4974329;28;20030;-78
2022/04/01 01:46:13;;;;;;;9.13;5.97;;;;;;;;;;4958103;28;20033;-78
2022/04/01 01:48:38;;;;;;;7.95;5.88;;;;;;;;;;4974496;28;20034;-78
2022/04/01 01:56:32;;;;;;;5.22;3.90;;;;;;;;;;4974561;28;20042;-79
2022/04/01 01:59:00;;;;;;;5.22;3.40;;;;;;;;;;4974376;28;20123;-78
2022/04/01 02:01:26;;;;;;;4.75;3.80;;;;;;;;;;4958495;28;20058;-78
2022/04/01 02:03:53;;;;;;;3.88;2.80;;;;;;;;;;4975030;28;20027;-78
2022/04/01 02:06:21;;;;;;;3.60;2.70;;;;;;;;;;4974154;28;20042;-78
2022/04/01 02:08:46;;;;;;;3.67;2.35;;;;;;;;;;4974427;28;20127;-78
2022/04/01 02:11:12;;;;;;;2.60;1.90;;;;;;;;;;4974509;28;20062;-78
2022/04/01 02:13:38;;;;;;;3.47;1.90;;;;;;;;;;4974666;28;20031;-78
2022/04/01 02:16:03;;;;;;;2.40;1.70;;;;;;;;;;4974223;28;20042;-79
2022/04/01 02:18:29;;;;;;;2.40;1.63;;;;;;;;;;4958449;28;20474;-79
2022/04/01 02:20:54;;;;;;;2.83;2.08;;;;;;;;;;4973994;28;20427;-78
2022/04/01 02:23:19;;;;;;;2.28;1.80;;;;;;;;;;4957875;28;20039;-78
2022/04/01 02:25:45;;;;;;;2.72;1.80;;;;;;;;;;4973771;28;20039;-78
2022/04/01 02:28:12;;;;;;;3.58;2.28;;;;;;;;;;4973773;28;20057;-78
2022/04/01 02:30:38;;;;;;;2.60;1.75;;;;;;;;;;4974330;28;20043;-78
2022/04/01 02:33:22;;;;;;;3.17;2.08;;;;;;;;;;4975586;28;20191;-79
2022/04/01 02:35:59;;;;;;;2.95;1.77;;;;;;;;;;4958958;28;20123;-78
2022/04/01 02:38:26;;;;;;;2.47;1.80;;;;;;;;;;4960209;28;20037;-78
2022/04/01 02:40:51;;;;;;;2.75;1.70;;;;;;;;;;4979063;28;20062;-78
2022/04/01 02:43:16;;;;;;;2.20;1.70;;;;;;;;;;4977796;28;20046;-78
2022/04/01 02:45:43;;;;;;;2.60;1.73;;;;;;;;;;4977376;28;20529;-78
2022/04/01 02:48:09;;;;;;;2.13;1.90;;;;;;;;;;4977643;28;20023;-78
2022/04/01 02:50:54;;;;;;;3.05;2.00;;;;;;;;;;4978853;28;20034;-79
2022/04/01 02:53:19;;;;;;;2.85;1.80;;;;;;;;;;4977311;28;20037;-79
2022/04/01 02:55:45;;;;;;;2.17;1.70;;;;;;;;;;4977561;28;20415;-79
2022/04/01 02:58:10;;;;;;;2.45;1.60;;;;;;;;;;4960929;28;20407;-79
2022/04/01 03:00:37;;;;;;;2.28;1.60;;;;;;;;;;4977550;28;20522;-78
2022/04/01 03:03:06;;;;;;;2.17;1.60;;;;;;;;;;4977024;28;20038;-79
2022/04/01 03:05:32;;;;;;;1.80;1.40;;;;;;;;;;4977173;28;20047;-78
2022/04/01 03:07:57;;;;;;;1.50;1.30;;;;;;;;;;4977323;28;20384;-79
2022/04/01 03:10:23;;;;;;;1.50;1.10;;;;;;;;;;4961261;28;20027;-78
2022/04/01 03:12:49;;;;;;;1.42;1.00;;;;;;;;;;4977474;28;20102;-79
2022/04/01 03:15:32;;;;;;;1.13;0.95;;;;;;;;;;4963399;28;20035;-78
2022/04/01 03:18:18;;;;;;;1.65;1.15;;;;;;;;;;4978370;28;20046;-78
2022/04/01 03:20:45;;;;;;;0.93;0.80;;;;;;;;;;4977116;28;20027;-79
2022/04/01 03:23:11;;;;;;;2.38;0.90;;;;;;;;;;4976554;28;20042;-79
2022/04/01 03:25:39;;;;;;;0.80;0.80;;;;;;;;;;4960913;28;20091;-77
2022/04/01 03:28:26;;;;;;;1.00;0.90;;;;;;;;;;4963584;28;20101;-79
2022/04/01 03:30:57;;;;;;;1.15;0.90;;;;;;;;;;4977197;28;20030;-78
2022/04/01 03:33:30;;;;;;;1.33;0.93;;;;;;;;;;4976915;28;20054;-79
2022/04/01 03:35:56;;;;;;;0.77;0.77;;;;;;;;;;4976347;28;20121;-78
2022/04/01 03:38:25;;;;;;;0.90;0.80;;;;;;;;;;4977065;28;20046;-79
2022/04/01 03:40:51;;;;;;;1.92;0.77;;;;;;;;;;4976757;28;20418;-78
2022/04/01 03:43:20;;;;;;;1.73;0.85;;;;;;;;;;4976805;28;20034;-78
2022/04/01 03:45:46;;;;;;;0.98;0.90;;;;;;;;;;4960391;28;20041;-78
2022/04/01 03:48:17;;;;;;;0.98;0.82;;;;;;;;;;4976331;28;20023;-78
2022/04/01 03:50:43;;;;;;;1.10;0.80;;;;;;;;;;4976719;28;20106;-78
2022/04/01 03:53:09;;;;;;;0.90;0.80;;;;;;;;;;4977958;28;20054;-78
2022/04/01 03:55:36;;;;;;;1.15;0.90;;;;;;;;;;4976112;28;20130;-79
2022/04/01 03:58:14;;;;;;;2.67;0.80;;;;;;;;;;4977787;28;20050;-78
2022/04/01 04:01:00;;;;;;;1.10;0.88;;;;;;;;;;4975989;28;20070;-78
2022/04/01 04:03:25;;;;;;;1.02;0.90;;;;;;;;;;4976018;28;20045;-78
2022/04/01 04:05:51;;;;;;;1.55;0.90;;;;;;;;;;4959966;28;20031;-79
2022/04/01 04:08:17;;;;;;;0.80;0.80;;;;;;;;;;4975840;28;20055;-78
2022/04/01 04:10:42;;;;;;;1.10;1.00;;;;;;;;;;4976614;28;20641;-78
2022/04/01 04:13:31;;;;;;;2.17;1.00;;;;;;;;;;4976138;28;20038;-78
2022/04/01 04:16:04;;;;;;;1.73;1.20;;;;;;;;;;4976254;28;20085;-78
2022/04/01 04:18:30;;;;;;;1.20;1.08;;;;;;;;;;4976220;28;20114;-79
2022/04/01 04:20:56;;;;;;;1.23;1.13;;;;;;;;;;4960202;28;20406;-78
2022/04/01 04:23:21;;;;;;;1.38;1.08;;;;;;;;;;4959894;28;20030;-79
2022/04/01 04:25:46;;;;;;;1.85;1.20;;;;;;;;;;4975845;28;20040;-78
2022/04/01 04:28:12;;;;;;;1.50;1.10;;;;;;;;;;4975527;28;20138;-78
2022/04/01 04:30:40;;;;;;;2.03;1.20;;;;;;;;;;4975385;28;20089;-76
2022/04/01 04:33:36;;;;;;;1.30;1.10;;;;;;;;;;4975788;28;20038;-78
2022/04/01 04:36:05;;;;;;;2.50;1.20;;;;;;;;;;4975213;28;20376;-78
2022/04/01 04:38:43;;;;;;;1.98;1.30;;;;;;;;;;4960563;28;20054;-78
2022/04/01 04:41:08;;;;;;;1.55;1.10;;;;;;;;;;4959128;28;20027;-79
2022/04/01 04:43:38;;;;;;;2.05;1.05;;;;;;;;;;4976174;28;20034;-78
2022/04/01 04:46:04;;;;;;;1.58;1.00;;;;;;;;;;4975282;28;20415;-80
2022/04/01 04:48:29;;;;;;;2.38;1.00;;;;;;;;;;4975397;28;20042;-79
2022/04/01 04:50:59;;;;;;;1.20;1.00;;;;;;;;;;4959667;28;20118;-78
2022/04/01 04:53:26;;;;;;;1.15;0.90;;;;;;;;;;4976219;28;20033;-80
2022/04/01 04:55:51;;;;;;;3.63;1.40;;;;;;;;;;4973790;28;20109;-80
2022/04/01 04:58:26;;;;;;;1.05;0.95;;;;;;;;;;4959712;28;20039;-80
2022/04/01 05:00:57;;;;;;;1.85;0.80;;;;;;;;;;4973197;28;20090;-80
2022/04/01 05:03:31;;;;;;;25.98;12.02;;;;;;;;;;4973753;28;20045;-80
2022/04/01 05:06:01;;;;;;;8.07;5.05;;;;;;;;;;4973631;28;20077;-80
2022/04/01 05:08:26;;;;;;;1.42;1.00;;;;;;;;;;4974354;28;20066;-79
2022/04/01 05:11:25;;;;;;;1.92;1.33;;;;;;;;;;4973097;28;20431;-79
2022/04/01 05:13:51;;;;;;;2.38;1.70;;;;;;;;;;4972847;28;20034;-79
2022/04/01 05:16:17;;;;;;;2.05;1.40;;;;;;;;;;4972530;28;20057;-79
2022/04/01 05:18:43;;;;;;;1.58;1.20;;;;;;;;;;4972754;28;20405;-79
2022/04/01 05:21:10;;;;;;;3.45;1.30;;;;;;;;;;4972328;28;20043;-80
2022/04/01 05:23:36;;;;;;;1.33;1.10;;;;;;;;;;4972405;28;20034;-79
2022/04/01 05:26:01;;;;;;;1.70;1.23;;;;;;;;;;4973003;28;20042;-80
2022/04/01 05:28:46;;;;;;;1.58;1.20;;;;;;;;;;4975188;28;20093;-79
2022/04/01 05:31:12;;;;;;;1.52;1.15;;;;;;;;;;4972877;28;20039;-78
2022/04/01 05:33:37;;;;;;;2.03;1.42;;;;;;;;;;4974197;28;20656;-78
2022/04/01 05:36:04;;;;;;;1.98;1.50;;;;;;;;;;4958312;28;20042;-78
2022/04/01 05:38:31;;;;;;;1.95;1.20;;;;;;;;;;4975789;28;20037;-78
2022/04/01 05:40:56;;;;;;;1.55;1.20;;;;;;;;;;4976478;28;20503;-78
2022/04/01 05:43:22;;;;;;;2.17;1.58;;;;;;;;;;4976874;28;20039;-77
2022/04/01 05:46:06;;;;;;;2.35;1.55;;;;;;;;;;4977962;28;20523;-78
2022/04/01 05:48:31;;;;;;;1.90;1.40;;;;;;;;;;4976771;28;20059;-78
2022/04/01 05:50:56;;;;;;;1.88;1.38;;;;;;;;;;4976195;28;20031;-79
2022/04/01 05:53:26;;;;;;;3.28;1.40;;;;;;;;;;4972936;28;20038;-78
2022/04/01 05:55:52;;;;;;;2.03;1.33;;;;;;;;;;4972524;28;20038;-79
2022/04/01 05:58:18;;;;;;;1.67;1.17;;;;;;;;;;4972360;28;20540;-78
2022/04/01 06:00:43;;;;;;;1.63;1.30;;;;;;;;;;4972217;28;20014;-78
2022/04/01 06:03:08;;;;;;;1.40;1.30;;;;;;;;;;4972198;28;20073;-78
2022/04/01 06:05:34;;;;;;;1.95;1.20;;;;;;;;;;4972073;28;20027;-78
2022/04/01 06:07:59;;;;;;;1.92;1.30;;;;;;;;;;4972485;28;20031;-79
2022/04/01 06:10:24;;;;;;;1.52;1.20;;;;;;;;;;4971963;28;20659;-78
2022/04/01 06:13:22;;;;;;;2.13;1.20;;;;;;;;;;4975830;28;20121;-79
2022/04/01 06:16:10;;;;;;;2.25;1.30;;;;;;;;;;4978025;28;20414;-79
2022/04/01 06:18:38;;;;;;;2.25;1.25;;;;;;;;;;4978612;28;20042;-79
2022/04/01 06:21:04;;;;;;;1.83;1.27;;;;;;;;;;4977159;28;20042;-79
2022/04/01 06:23:30;;;;;;;1.90;1.40;;;;;;;;;;4976956;28;20122;-79
2022/04/01 06:25:56;;;;;;;2.40;1.30;;;;;;;;;;4978053;28;20155;-80
2022/04/01 06:28:24;;;;;;;3.42;1.50;;;;;;;;;;4976807;28;20515;-80
2022/04/01 06:30:51;;;;;;;3.28;1.60;;;;;;;;;;4976895;28;20117;-80
2022/04/01 06:33:16;;;;;;;2.15;1.55;;;;;;;;;;4976669;28;20121;-80
2022/04/01 06:35:57;;;;;;;3.33;1.58;;;;;;;;;;4976371;28;20038;-80
2022/04/01 06:38:27;;;;;;;2.70;1.65;;;;;;;;;;4975642;28;20031;-80
2022/04/01 06:40:52;;;;;;;2.33;1.20;;;;;;;;;;4976343;28;20033;-80
2022/04/01 06:43:22;;;;;;;1.75;1.40;;;;;;;;;;4976789;28;20066;-79
2022/04/01 06:46:07;;;;;;;2.30;1.60;;;;;;;;;;4976781;28;20108;-79
2022/04/01 06:48:55;;;;;;;1.77;1.17;;;;;;;;;;4974364;28;20039;-80
2022/04/01 06:51:39;;;;;;;;;;;;;;;;;;4977262;28;20050;-85
2022/04/01 06:54:23;;;;;;;1.83;1.30;;;;;;;;;;4976608;28;20429;-80
2022/04/01 06:57:15;;;;;;;1.73;1.23;;;;;;;;;;4976656;28;20038;-80
2022/04/01 06:59:59;;;;;;;2.30;1.40;;;;;;;;;;4976568;28;20134;-79
2022/04/01 07:02:24;;;;;;;1.88;1.40;;;;;;;;;;4976573;28;20050;-79
2022/04/01 07:04:50;;;;;;;1.88;1.38;;;;;;;;;;4975459;28;20113;-79
2022/04/01 07:07:15;;;;;;;2.13;1.42;;;;;;;;;;4975346;28;20503;-78
2022/04/01 07:09:40;;;;;;;2.25;1.55;;;;;;;;;;4975912;28;20487;-78
2022/04/01 07:12:05;;;;;;;1.63;1.30;;;;;;;;;;4974807;28;20034;-78
2022/04/01 07:14:31;;;;;;;2.65;1.50;;;;;;;;;;4975870;28;20038;-80
2022/04/01 07:16:56;;;;;;;3.67;1.60;;;;;;;;;;4958522;28;20511;-77
2022/04/01 07:19:22;;;;;;;2.67;1.52;;;;;;;;;;4976731;28;20035;-79
2022/04/01 07:21:47;;;;;;;2.45;1.73;;;;;;;;;;4958681;28;20117;-79
2022/04/01 07:24:12;;;;;;;1.90;1.40;;;;;;;;;;4975264;28;20377;-79
2022/04/01 07:26:37;;;;;;;1.63;1.20;;;;;;;;;;4974455;28;20038;-79
2022/04/01 07:29:03;;;;;;;1.55;1.13;;;;;;;;;;4975694;28;20030;-79
2022/04/01 07:34:12;;;;;;;2.10;1.20;;;;;;;;;;4974399;28;20049;-79
2022/04/01 07:36:37;;;;;;;1.60;1.20;;;;;;;;;;4974148;28;20407;-79
2022/04/01 07:39:03;;;;;;;1.38;1.15;;;;;;;;;;4975606;28;20093;-79
2022/04/01 07:41:29;;;;;;;1.73;1.20;;;;;;;;;;4975542;28;20035;-79
2022/04/01 07:43:54;;;;;;;1.27;1.00;;;;;;;;;;4975234;28;20042;-79
2022/04/01 07:46:20;;;;;;;2.15;0.90;;;;;;;;;;4976445;28;20027;-78
2022/04/01 07:48:45;;;;;;;1.60;1.25;;;;;;;;;;4977042;28;20049;-81
2022/04/01 07:51:10;;;;;;;1.25;1.08;;;;;;;;;;4977140;28;20031;-79
2022/04/01 07:53:35;;;;;;;1.40;1.17;;;;;;;;;;4976488;28;20189;-80
2022/04/01 07:56:01;;;;;;;1.38;1.10;;;;;;;;;;5013385;23;20035;-85
2022/04/01 07:58:26;;;;;;;1.27;1.00;;;;;;;;;;4977522;28;20042;-84
2022/04/01 08:00:51;;;;;;;1.02;0.95;;;;;;;;;;4977649;28;20039;-86
2022/04/01 08:03:16;;;;;;;1.10;1.00;;;;;;;;;;4978247;28;20045;-86
2022/04/01 08:05:42;;;;;;;2.03;1.00;;;;;;;;;;4976773;28;20034;-85
2022/04/01 08:08:07;;;;;;;1.35;1.15;;;;;;;;;;4977841;28;20495;-85
2022/04/01 08:10:33;;;;;;;1.70;1.08;;;;;;;;;;4959205;28;20058;-83
2022/04/01 08:12:58;;;;;;;1.13;0.95;;;;;;;;;;4985351;28;20067;-83
2022/04/01 08:15:24;;;;;;;1.40;1.10;;;;;;;;;;4977332;28;20037;-84
2022/04/01 08:17:49;;;;;;;1.55;1.20;;;;;;;;;;4977178;28;20086;-87
2022/04/01 08:20:15;;;;;;;1.38;1.08;;;;;;;;;;4961407;28;20030;-86
2022/04/01 08:22:40;;;;;;;1.15;0.80;;;;;;;;;;4961491;28;20058;-85
2022/04/01 08:25:05;;;;;;;1.30;1.00;;;;;;;;;;4978251;28;20046;-84
2022/04/01 08:27:31;;;;;;;1.55;1.10;;;;;;;;;;4977180;28;20403;-85
2022/04/01 08:29:59;;;;;;;0.73;0.70;;;;;;;;;;4979205;28;20039;-85
2022/04/01 08:32:24;;;;;;;1.23;0.77;;;;;;;;;;4980986;28;20058;-83
2022/04/01 08:34:49;;;;;;;0.80;0.73;;;;;;;;;;4983713;28;20035;-84
2022/04/01 08:37:14;;;;;;;0.82;0.60;;;;;;;;;;4978074;28;20042;-85
2022/04/01 08:39:43;;;;;;;0.50;0.50;;;;;;;;;;4976492;28;20561;-84
2022/04/01 08:42:08;;;;;;;0.60;0.60;;;;;;;;;;4976917;28;20034;-85
2022/04/01 08:44:37;;;;;;;0.70;0.60;;;;;;;;;;4976334;28;20034;-84
2022/04/01 08:47:02;;;;;;;1.00;0.70;;;;;;;;;;4977950;28;20486;-84
2022/04/01 08:49:27;;;;;;;0.45;0.45;;;;;;;;;;4977857;28;20038;-87
2022/04/01 08:51:53;;;;;;;0.52;0.52;;;;;;;;;;4978151;28;20414;-85
2022/04/01 08:54:18;;;;;;;0.60;0.60;;;;;;;;;;4987256;28;20095;-85
2022/04/01 08:56:43;;;;;;;0.55;0.50;;;;;;;;;;4978089;28;20042;-87
2022/04/01 08:59:08;;;;;;;0.60;0.60;;;;;;;;;;4978046;28;20403;-85
2022/04/01 09:01:34;;;;;;;0.50;0.50;;;;;;;;;;4977737;28;20084;-86
2022/04/01 09:03:59;;;;;;;1.98;0.52;;;;;;;;;;4976811;28;20117;-82
2022/04/01 09:06:24;;;;;;;1.00;0.60;;;;;;;;;;4977431;28;20204;-84
2022/04/01 09:08:49;;;;;;;1.00;0.80;;;;;;;;;;4978085;28;20042;-85
2022/04/01 09:11:16;;;;;;;1.63;0.60;;;;;;;;;;4976958;28;20045;-84
2022/04/01 09:13:41;;;;;;;1.30;1.00;;;;;;;;;;4978482;28;20109;-84
2022/04/01 09:16:08;;;;;;;1.50;0.90;;;;;;;;;;4977237;28;20486;-85
2022/04/01 09:18:33;;;;;;;1.20;0.80;;;;;;;;;;4975655;28;20061;-86
2022/04/01 09:20:59;;;;;;;1.23;0.80;;;;;;;;;;4959018;28;20023;-86
2022/04/01 09:23:24;;;;;;;1.00;0.85;;;;;;;;;;4985219;28;20097;-85
2022/04/01 09:25:49;;;;;;;1.00;0.90;;;;;;;;;;4976943;28;20041;-86
2022/04/01 09:28:15;;;;;;;1.70;1.02;;;;;;;;;;4960510;28;20034;-84
2022/04/01 09:30:40;;;;;;;1.60;1.10;;;;;;;;;;4968144;28;20475;-84
2022/04/01 09:33:06;;;;;;;0.80;0.80;;;;;;;;;;4976302;28;20039;-85
2022/04/01 09:35:31;;;;;;;1.50;1.05;;;;;;;;;;4977113;28;20038;-86
2022/04/01 09:37:58;;;;;;;1.25;1.00;;;;;;;;;;4959205;28;20031;-85
2022/04/01 09:40:24;;;;;;;0.80;0.80;;;;;;;;;;4976997;28;20034;-85
2022/04/01 09:42:49;;;;;;;0.70;0.70;;;;;;;;;;4975432;28;20027;-84
2022/04/01 09:45:14;;;;;;;0.82;0.82;;;;;;;;;;4974924;28;20038;-85
2022/04/01 09:47:39;;;;;;;1.02;0.80;;;;;;;;;;4980784;28;20022;-85
2022/04/01 09:50:05;;;;;;;1.92;1.00;;;;;;;;;;4972438;28;20038;-85
2022/04/01 09:52:36;;;;;;;1.27;0.93;;;;;;;;;;4988937;28;20022;-86
2022/04/01 09:55:01;;;;;;;1.38;0.90;;;;;;;;;;4987518;28;20066;-84
2022/04/01 09:57:28;;;;;;;1.38;1.00;;;;;;;;;;4973267;28;20031;-85
2022/04/01 09:59:54;;;;;;;1.25;0.90;;;;;;;;;;4989357;28;20027;-87
2022/04/01 10:02:20;;;;;;;0.82;0.80;;;;;;;;;;4988981;28;20890;-84
2022/04/01 10:04:45;;;;;;;1.13;0.90;;;;;;;;;;4990649;28;20503;-85
2022/04/01 10:07:10;;;;;;;1.48;1.00;;;;;;;;;;4988114;28;20038;-86
2022/04/01 10:09:36;;;;;;;1.27;0.90;;;;;;;;;;4967406;28;20034;-85
2022/04/01 10:12:02;;;;;;;0.75;0.75;;;;;;;;;;4972791;28;20047;-88
2022/04/01 10:14:27;;;;;;;0.90;0.80;;;;;;;;;;4989857;28;20042;-85
2022/04/01 10:16:53;;;;;;;1.17;0.88;;;;;;;;;;4990844;28;20047;-86
2022/04/01 10:19:18;;;;;;;0.88;0.82;;;;;;;;;;4987415;28;20057;-85
2022/04/01 10:21:43;;;;;;;1.10;0.80;;;;;;;;;;4989874;28;20143;-82
2022/04/01 10:24:09;;;;;;;1.05;0.90;;;;;;;;;;4986875;28;20067;-87
2022/04/01 10:26:37;;;;;;;1.23;1.08;;;;;;;;;;4974698;28;20051;-84
2022/04/01 10:29:03;;;;;;;0.80;0.80;;;;;;;;;;4988965;28;20038;-86
2022/04/01 10:31:28;;;;;;;1.20;0.88;;;;;;;;;;4990348;28;20045;-86
2022/04/01 10:33:53;;;;;;;1.00;0.90;;;;;;;;;;4990082;28;20042;-87
2022/04/01 10:36:21;;;;;;;1.27;1.00;;;;;;;;;;4988237;28;20046;-87
2022/04/01 10:38:47;;;;;;;1.40;1.10;;;;;;;;;;4987131;28;20039;-85
2022/04/01 10:41:12;;;;;;;0.90;0.80;;;;;;;;;;4970496;28;20046;-85
2022/04/01 10:43:37;;;;;;;1.05;0.80;;;;;;;;;;4987895;28;20059;-86
2022/04/01 10:46:03;;;;;;;1.40;1.00;;;;;;;;;;4986935;28;20019;-85
2022/04/01 10:53:56;;;;;;;1.17;1.02;;;;;;;;;;4988037;28;20038;-86
2022/04/01 10:56:22;;;;;;;1.38;1.10;;;;;;;;;;4984909;28;20042;-87
2022/04/01 10:58:47;;;;;;;0.70;0.68;;;;;;;;;;4988902;28;20054;-88
2022/04/01 11:01:13;;;;;;;0.77;0.70;;;;;;;;;;4986449;28;20034;-86
2022/04/01 11:03:38;;;;;;;2.72;0.60;;;;;;;;;;4962262;28;20088;-85
2022/04/01 11:06:03;;;;;;;0.73;0.50;;;;;;;;;;4961388;28;20135;-89
2022/04/01 11:08:29;;;;;;;0.85;0.70;;;;;;;;;;4978189;28;20042;-87
2022/04/01 11:10:54;;;;;;;0.98;0.75;;;;;;;;;;4977520;28;20487;-86
2022/04/01 11:13:19;;;;;;;1.05;0.80;;;;;;;;;;4978801;28;20146;-88
2022/04/01 11:15:44;;;;;;;0.65;0.65;;;;;;;;;;4977160;28;20045;-87
2022/04/01 11:18:10;;;;;;;0.90;0.80;;;;;;;;;;4978294;28;20030;-84
2022/04/01 11:20:35;;;;;;;1.10;0.77;;;;;;;;;;4977643;28;20547;-86
2022/04/01 11:23:01;;;;;;;0.60;0.60;;;;;;;;;;4986493;28;20062;-86
2022/04/01 11:25:32;;;;;;;0.88;0.70;;;;;;;;;;4977078;28;20031;-88
2022/04/01 11:27:58;;;;;;;0.85;0.68;;;;;;;;;;4977010;28;20062;-87
2022/04/01 11:30:24;;;;;;;0.80;0.70;;;;;;;;;;4977287;28;20038;-85
2022/04/01 11:32:50;;;;;;;0.85;0.80;;;;;;;;;;4959563;28;20035;-85
2022/04/01 11:35:18;;;;;;;0.63;0.63;;;;;;;;;;4976043;28;20042;-85
2022/04/01 11:37:43;;;;;;;2.35;0.68;;;;;;;;;;4974792;28;20077;-86
2022/04/01 11:40:08;;;;;;;0.65;0.60;;;;;;;;;;4988348;28;20038;-86
2022/04/01 11:42:34;;;;;;;0.50;0.50;;;;;;;;;;4979700;28;20026;-87
2022/04/01 11:44:59;;;;;;;0.65;0.60;;;;;;;;;;4979065;28;20030;-87
2022/04/01 11:47:24;;;;;;;0.63;0.63;;;;;;;;;;4977612;28;20106;-87
2022/04/01 11:49:50;;;;;;;0.77;0.77;;;;;;;;;;4961749;28;20062;-86
2022/04/01 11:52:15;;;;;;;0.50;0.50;;;;;;;;;;4979296;28;20050;-86
2022/04/01 11:54:40;;;;;;;0.60;0.60;;;;;;;;;;4978800;28;20069;-86
2022/04/01 11:57:06;;;;;;;1.20;0.80;;;;;;;;;;4978954;28;20045;-85
2022/04/01 11:59:31;;;;;;;0.80;0.80;;;;;;;;;;4977961;28;20085;-86
2022/04/01 12:01:58;;;;;;;0.70;0.70;;;;;;;;;;4977139;28;20030;-85
2022/04/01 12:04:23;;;;;;;0.82;0.82;;;;;;;;;;4978027;28;20086;-85
2022/04/01 12:09:34;;;;;;;1.60;1.10;;;;;;;;;;4978801;28;20043;-86
2022/04/01 12:12:01;;;;;;;1.70;0.98;;;;;;;;;;4976443;28;20487;-88
2022/04/01 12:14:27;;;;;;;2.78;1.40;;;;;;;;;;4976815;28;20031;-84
2022/04/01 12:16:52;;;;;;;2.20;1.40;;;;;;;;;;4975590;28;20524;-84
2022/04/01 12:19:20;;;;;;;1.00;0.77;;;;;;;;;;4985776;28;20030;-85
2022/04/01 12:21:45;;;;;;;1.90;1.30;;;;;;;;;;4976828;28;20042;-85
2022/04/01 12:24:10;;;;;;;1.33;0.82;;;;;;;;;;4976370;28;20640;-87
2022/04/01 12:26:35;;;;;;;1.20;0.90;;;;;;;;;;4977181;28;20095;-87
2022/04/01 12:29:01;;;;;;;5.60;3.25;;;;;;;;;;4978607;28;20129;-87
2022/04/01 12:31:26;;;;;;;38.10;11.82;;;;;;;;;;4975689;28;20039;-87
2022/04/01 12:33:51;;;;;;;1.38;1.10;;;;;;;;;;4976838;28;20026;-86
2022/04/01 12:36:18;;;;;;;1.55;0.90;;;;;;;;;;4975681;28;20419;-87
2022/04/01 12:38:43;;;;;;;1.45;1.00;;;;;;;;;;4974837;28;20027;-85
2022/04/01 12:41:09;;;;;;;1.05;0.77;;;;;;;;;;4974632;28;20054;-85
2022/04/01 12:43:34;;;;;;;0.80;0.80;;;;;;;;;;4975644;28;20085;-86
2022/04/01 12:46:00;;;;;;;2.13;1.20;;;;;;;;;;4973337;28;20130;-85
2022/04/01 12:48:25;;;;;;;0.93;0.90;;;;;;;;;;4983548;28;20109;-85
2022/04/01 12:50:50;;;;;;;1.38;1.20;;;;;;;;;;4977734;28;20034;-88
2022/04/01 12:53:16;;;;;;;1.10;1.00;;;;;;;;;;4977496;28;20038;-89
2022/04/01 12:55:42;;;;;;;1.20;1.10;;;;;;;;;;4975476;28;20118;-87
2022/04/01 12:58:12;;;;;;;3.78;2.70;;;;;;;;;;4959473;28;20061;-87
2022/04/01 13:00:37;;;;;;;1.05;0.95;;;;;;;;;;4974895;28;20035;-87
2022/04/01 13:03:03;;;;;;;2.42;2.17;;;;;;;;;;4975059;28;20089;-86
2022/04/01 13:05:28;;;;;;;0.90;0.90;;;;;;;;;;4974747;28;20498;-87
2022/04/01 13:07:54;;;;;;;1.05;0.95;;;;;;;;;;4974505;28;20490;-86
2022/04/01 13:10:21;;;;;;;1.58;1.00;;;;;;;;;;4975085;28;20039;-86
2022/04/01 13:12:46;;;;;;;1.13;1.02;;;;;;;;;;4973160;28;20054;-84
2022/04/01 13:15:12;;;;;;;1.30;1.10;;;;;;;;;;4982444;28;20027;-85
2022/04/01 13:17:37;;;;;;;1.83;1.20;;;;;;;;;;4975291;28;20133;-86
2022/04/01 13:20:03;;;;;;;1.25;1.08;;;;;;;;;;4976431;28;20174;-86
2022/04/01 13:22:28;;;;;;;1.48;1.10;;;;;;;;;;4975638;28;20046;-87
2022/04/01 13:24:53;;;;;;;1.38;1.10;;;;;;;;;;4976092;28;20122;-89
2022/04/01 13:27:19;;;;;;;2.28;1.10;;;;;;;;;;4976662;28;20039;-87
2022/04/01 13:29:44;;;;;;;1.17;1.08;;;;;;;;;;4975328;28;20039;-87
2022/04/01 13:32:09;;;;;;;1.20;1.10;;;;;;;;;;4976708;28;20023;-87
2022/04/01 13:34:35;;;;;;;1.15;1.00;;;;;;;;;;4975939;28;20034;-86
2022/04/01 13:37:00;;;;;;;1.35;1.10;;;;;;;;;;4975480;28;20035;-88
2022/04/01 13:39:26;;;;;;;1.42;1.17;;;;;;;;;;4975114;28;20515;-87
2022/04/01 13:41:51;;;;;;;2.70;1.48;;;;;;;;;;4973999;28;20521;-87
2022/04/01 13:44:16;;;;;;;4.97;1.33;;;;;;;;;;4973814;28;20076;-87
2022/04/01 13:46:42;;;;;;;1.80;1.30;;;;;;;;;;4975018;28;20030;-86
2022/04/01 13:49:07;;;;;;;1.38;1.20;;;;;;;;;;4974391;28;20042;-86
2022/04/01 13:51:32;;;;;;;1.90;1.40;;;;;;;;;;4972852;28;20050;-87
2022/04/01 13:53:57;;;;;;;1.20;1.10;;;;;;;;;;4972371;28;20050;-86
2022/04/01 13:56:22;;;;;;;3.13;1.27;;;;;;;;;;4982330;28;20050;-86
2022/04/01 13:58:48;;;;;;;6.18;1.65;;;;;;;;;;4976503;28;20039;-87
2022/04/01 14:01:13;;;;;;;2.05;1.42;;;;;;;;;;4999317;23;20073;-79
2022/04/01 14:03:39;;;;;;;1.55;1.30;;;;;;;;;;4992387;28;20022;-79
2022/04/01 14:06:04;;;;;;;1.33;1.13;;;;;;;;;;4992047;28;20037;-79
2022/04/01 14:08:30;;;;;;;1.60;1.20;;;;;;;;;;4992639;28;20042;-79
2022/04/01 14:10:55;;;;;;;2.45;1.40;;;;;;;;;;4991198;28;20042;-79
2022/04/01 14:13:20;;;;;;;1.67;1.40;;;;;;;;;;4992532;28;20096;-79
2022/04/01 14:15:45;;;;;;;1.73;1.50;;;;;;;;;;4992192;28;20034;-78
2022/04/01 14:18:11;;;;;;;2.65;1.58;;;;;;;;;;4991247;28;20495;-78
2022/04/01 14:20:36;;;;;;;2.15;1.50;;;;;;;;;;4974719;28;20034;-78
2022/04/01 14:23:01;;;;;;;1.90;1.40;;;;;;;;;;4992465;28;20045;-78
2022/04/01 14:25:27;;;;;;;4.05;1.40;;;;;;;;;;4990766;28;20077;-79
2022/04/01 14:27:52;;;;;;;2.03;1.50;;;;;;;;;;4991315;28;20058;-79
2022/04/01 14:30:21;;;;;;;2.22;1.50;;;;;;;;;;4990861;28;20391;-77
2022/04/01 14:32:47;;;;;;;2.05;1.40;;;;;;;;;;4992326;28;20042;-80
2022/04/01 14:35:12;;;;;;;1.80;1.40;;;;;;;;;;4995664;28;20058;-79
2022/04/01 14:37:37;;;;;;;1.70;1.33;;;;;;;;;;4996334;28;20483;-78
2022/04/01 14:40:02;;;;;;;2.85;1.30;;;;;;;;;;4996250;28;20038;-79
2022/04/01 14:42:28;;;;;;;1.80;1.50;;;;;;;;;;4996216;28;20515;-79
2022/04/01 14:44:54;;;;;;;1.35;1.25;;;;;;;;;;4996468;28;20042;-80
2022/04/01 14:47:19;;;;;;;1.50;1.40;;;;;;;;;;4996679;28;20048;-78
2022/04/01 14:49:44;;;;;;;2.08;1.27;;;;;;;;;;4995843;28;20491;-77
2022/04/01 14:52:10;;;;;;;1.50;1.30;;;;;;;;;;4995918;28;20030;-78
2022/04/01 14:54:35;;;;;;;2.03;1.30;;;;;;;;;;4994472;28;20065;-79
2022/04/01 14:57:00;;;;;;;1.67;1.30;;;;;;;;;;4996048;28;20042;-78
2022/04/01 14:59:25;;;;;;;1.73;1.50;;;;;;;;;;4995849;28;20407;-79